Time;durP1;ratioP1;P1;durP2;ratioP2;P2;SDS_P1;SDS_P2;PMS_P1;PMS_P2;Temp;Humidity;BMP_temperature;BMP_pressure;BME280_temperature;BME280_humidity;BME280_pressure;Samples;Min_cycle;Max_cycle;Signal;HPM_P1;HPM_P2
2021/10/14 00:00:38;;;;;;;39.20;20.95;;;;;;;12.40;83.48;99192.94;5021389;28;20048;-49
2021/10/14 00:03:08;;;;;;;38.33;22.08;;;;;;;12.41;83.55;99187.63;5038891;28;20497;-50
2021/10/14 00:05:34;;;;;;;36.88;21.40;;;;;;;12.33;83.54;99174.13;5044272;28;20504;-50
2021/10/14 00:08:00;;;;;;;37.92;20.42;;;;;;;12.41;83.65;99176.34;5049328;28;20051;-52
2021/10/14 00:10:26;;;;;;;38.60;22.00;;;;;;;12.39;83.85;99170.38;5045710;28;20041;-51
2021/10/14 00:12:52;;;;;;;42.25;21.05;;;;;;;12.40;83.90;99175.53;5039656;28;20038;-51
2021/10/14 00:15:18;;;;;;;41.45;22.52;;;;;;;12.42;84.20;99172.81;4995436;28;20060;-52
2021/10/14 00:17:44;;;;;;;43.22;22.65;;;;;;;12.42;84.08;99170.22;5039473;28;20045;-53
2021/10/14 00:20:10;;;;;;;47.13;23.35;;;;;;;12.44;83.73;99166.63;5036194;28;20131;-51
2021/10/14 00:22:35;;;;;;;43.95;23.35;;;;;;;12.46;83.32;99163.91;5046060;28;20124;-50
2021/10/14 00:25:01;;;;;;;43.42;24.30;;;;;;;12.38;83.18;99140.84;5039097;28;20072;-51
2021/10/14 00:27:28;;;;;;;46.47;24.25;;;;;;;12.48;83.24;99162.09;5042303;28;20052;-50
2021/10/14 00:29:54;;;;;;;39.00;23.40;;;;;;;12.44;82.99;99150.97;5034903;28;20037;-53
2021/10/14 00:32:19;;;;;;;42.78;24.40;;;;;;;12.46;82.66;99145.66;5049653;28;20504;-51
2021/10/14 00:34:45;;;;;;;46.85;25.40;;;;;;;12.50;82.82;99152.44;5041857;28;20512;-47
2021/10/14 00:37:11;;;;;;;44.83;24.77;;;;;;;12.53;82.61;99149.66;5049720;28;20127;-48
2021/10/14 00:39:37;;;;;;;44.40;23.17;;;;;;;12.45;82.36;99137.03;5051272;28;20056;-49
2021/10/14 00:42:02;;;;;;;41.45;22.05;;;;;;;12.54;82.55;99154.81;5051392;28;20036;-47
2021/10/14 00:44:50;;;;;;;39.60;22.17;;;;;;;12.54;82.54;99160.03;5051089;28;20128;-53
2021/10/14 00:47:20;;;;;;;43.88;23.25;;;;;;;12.51;82.42;99144.50;5031040;28;20052;-49
2021/10/14 00:49:46;;;;;;;41.35;22.15;;;;;;;12.52;82.82;99145.34;5052544;28;20053;-51
2021/10/14 00:52:12;;;;;;;42.67;24.15;;;;;;;12.54;82.81;99146.13;5049506;28;20044;-52
2021/10/14 00:54:38;;;;;;;38.50;22.33;;;;;;;12.52;82.89;99142.75;5052213;28;20123;-49
2021/10/14 00:57:04;;;;;;;43.90;23.15;;;;;;;12.51;82.42;99133.28;5049144;28;20047;-48
2021/10/14 00:59:32;;;;;;;38.08;20.45;;;;;;;12.50;82.43;99134.19;5041394;28;20053;-49
2021/10/14 01:01:58;;;;;;;34.10;20.33;;;;;;;12.51;82.53;99125.44;5033972;28;20091;-49
2021/10/14 01:04:23;;;;;;;35.95;19.75;;;;;;;12.48;82.37;99128.19;5051354;28;20529;-53
2021/10/14 01:06:49;;;;;;;36.20;19.30;;;;;;;12.46;82.49;99119.59;5017580;28;20463;-50
2021/10/14 01:09:16;;;;;;;36.63;20.25;;;;;;;12.44;82.54;99116.25;5044437;28;20080;-53
2021/10/14 01:11:42;;;;;;;39.92;20.52;;;;;;;12.39;82.36;99121.69;5044378;28;20064;-49
2021/10/14 01:14:08;;;;;;;38.45;21.48;;;;;;;12.38;82.45;99120.00;5036580;28;20610;-49
2021/10/14 01:16:44;;;;;;;40.90;21.60;;;;;;;12.37;82.68;99122.66;5038912;28;20069;-51
2021/10/14 01:19:11;;;;;;;39.22;21.55;;;;;;;12.37;82.19;99120.06;5037884;28;20036;-50
2021/10/14 01:21:37;;;;;;;41.58;22.10;;;;;;;12.35;82.37;99122.78;5041768;28;20057;-49
2021/10/14 01:24:03;;;;;;;41.08;21.35;;;;;;;12.36;82.22;99128.81;5039286;28;20410;-51
2021/10/14 01:26:29;;;;;;;36.30;21.83;;;;;;;12.27;82.06;99109.28;5031924;28;20046;-55
2021/10/14 01:28:56;;;;;;;37.05;22.25;;;;;;;12.37;82.33;99123.53;5031526;28;20041;-50
2021/10/14 01:31:23;;;;;;;43.35;22.23;;;;;;;12.38;82.45;99121.75;5033186;28;20087;-53
2021/10/14 01:33:49;;;;;;;41.92;22.02;;;;;;;12.36;82.47;99123.59;5028405;28;20099;-53
2021/10/14 01:36:14;;;;;;;40.25;21.67;;;;;;;12.35;82.44;99125.38;5030716;28;20045;-51
2021/10/14 01:38:40;;;;;;;38.03;21.05;;;;;;;12.34;82.58;99136.72;5033159;28;20402;-48
2021/10/14 01:41:06;;;;;;;42.88;22.17;;;;;;;12.32;82.41;99123.75;5031531;28;20049;-51
2021/10/14 01:43:33;;;;;;;38.08;20.92;;;;;;;12.31;82.48;99123.81;5039864;28;20045;-52
2021/10/14 01:45:59;;;;;;;42.65;21.90;;;;;;;12.31;82.57;99135.09;5044157;28;20048;-51
2021/10/14 01:48:27;;;;;;;40.15;22.67;;;;;;;12.30;82.42;99128.19;5030506;28;20044;-49
2021/10/14 01:50:54;;;;;;;42.63;21.27;;;;;;;12.28;82.50;99117.00;5013911;28;20054;-49
2021/10/14 01:53:20;;;;;;;39.08;22.02;;;;;;;12.25;82.68;99111.94;5031835;28;20563;-49
2021/10/14 01:55:45;;;;;;;43.90;22.02;;;;;;;12.24;82.97;99112.88;5016046;28;20049;-50
2021/10/14 01:58:11;;;;;;;36.65;20.90;;;;;;;12.25;83.05;99121.53;5013114;28;20043;-51
2021/10/14 02:00:37;;;;;;;37.08;20.65;;;;;;;12.23;82.87;99119.00;5045922;28;20140;-52
2021/10/14 02:03:03;;;;;;;37.15;19.52;;;;;;;12.18;82.59;99110.59;5051346;28;20045;-51
2021/10/14 02:05:29;;;;;;;36.58;19.92;;;;;;;12.16;82.76;99119.38;5051369;28;20140;-51
2021/10/14 02:07:54;;;;;;;36.75;20.75;;;;;;;12.16;82.51;99128.03;5033446;28;20120;-49
2021/10/14 02:10:20;;;;;;;35.60;19.92;;;;;;;12.17;82.55;99126.28;5029499;28;20144;-50
2021/10/14 02:12:47;;;;;;;37.70;19.92;;;;;;;12.17;82.81;99123.69;5028932;28;20041;-50
2021/10/14 02:15:13;;;;;;;36.30;19.25;;;;;;;12.17;82.52;99129.75;5022511;28;20049;-50
2021/10/14 02:17:39;;;;;;;38.47;19.77;;;;;;;12.17;82.32;99124.53;5020909;28;20041;-50
2021/10/14 02:20:06;;;;;;;35.50;19.02;;;;;;;12.18;82.73;99133.19;5029958;28;20090;-50
2021/10/14 02:22:32;;;;;;;37.63;19.52;;;;;;;12.16;82.52;99124.59;5030787;28;20106;-52
2021/10/14 02:24:58;;;;;;;33.05;18.65;;;;;;;12.15;82.44;99126.34;5041814;28;20372;-51
2021/10/14 02:27:24;;;;;;;29.45;18.88;;;;;;;12.14;81.98;99118.63;5046379;28;20041;-51
2021/10/14 02:29:50;;;;;;;34.72;18.42;;;;;;;12.12;81.85;99126.53;5044022;28;20059;-52
2021/10/14 02:32:16;;;;;;;28.70;18.27;;;;;;;12.09;81.83;99123.22;5035321;28;20116;-48
2021/10/14 02:34:41;;;;;;;33.47;18.52;;;;;;;12.08;82.02;99121.53;5030865;28;20540;-49
2021/10/14 02:37:07;;;;;;;31.63;18.75;;;;;;;12.09;81.79;99116.22;5030781;28;20140;-51
2021/10/14 02:39:33;;;;;;;31.17;18.85;;;;;;;12.10;82.43;99115.31;5030041;28;20045;-49
2021/10/14 02:41:59;;;;;;;29.95;16.98;;;;;;;12.06;82.27;99115.53;5043327;28;20428;-51
2021/10/14 02:44:24;;;;;;;29.60;18.55;;;;;;;12.07;82.03;99109.41;5032642;28;20128;-52
2021/10/14 02:46:50;;;;;;;30.90;17.08;;;;;;;12.05;81.86;99106.88;5030319;28;20044;-50
2021/10/14 02:49:16;;;;;;;31.42;17.73;;;;;;;12.04;81.87;99101.75;5029769;28;20042;-53
2021/10/14 02:51:42;;;;;;;34.33;17.23;;;;;;;12.02;82.01;99101.84;5031152;28;20531;-50
2021/10/14 02:54:07;;;;;;;28.08;16.77;;;;;;;12.00;82.56;99092.41;5050208;28;20044;-54
2021/10/14 02:56:33;;;;;;;26.25;16.27;;;;;;;12.02;82.13;99101.00;5050570;28;20064;-51
2021/10/14 02:58:59;;;;;;;30.30;16.88;;;;;;;12.01;82.30;99096.69;5050438;28;20068;-51
2021/10/14 03:01:25;;;;;;;30.30;16.58;;;;;;;11.86;82.25;99072.25;5041162;28;20048;-51
2021/10/14 03:03:50;;;;;;;28.77;16.77;;;;;;;11.98;81.82;99089.03;5029242;28;20086;-55
2021/10/14 03:06:16;;;;;;;30.42;16.38;;;;;;;11.97;82.04;99090.81;5032986;28;20504;-53
2021/10/14 03:08:42;;;;;;;27.48;15.77;;;;;;;11.94;81.61;99093.53;5048604;28;20044;-52
2021/10/14 03:11:07;;;;;;;26.60;15.38;;;;;;;11.94;81.29;99095.31;5035203;28;20084;-52
2021/10/14 03:13:33;;;;;;;24.38;15.55;;;;;;;11.92;81.42;99084.13;5028609;28;20076;-49
2021/10/14 03:15:59;;;;;;;25.35;15.07;;;;;;;11.87;81.17;99081.75;5018576;28;20120;-49
2021/10/14 03:18:25;;;;;;;25.88;15.30;;;;;;;11.87;81.61;99089.56;5029795;28;20053;-51
2021/10/14 03:20:50;;;;;;;26.15;15.63;;;;;;;11.86;81.24;99086.13;5029832;28;20041;-54
2021/10/14 03:23:16;;;;;;;26.70;14.95;;;;;;;11.86;81.31;99086.13;5023942;28;20135;-51
2021/10/14 03:25:42;;;;;;;26.38;14.98;;;;;;;11.85;81.52;99078.38;5029968;28;20509;-52
2021/10/14 03:28:08;;;;;;;23.55;14.48;;;;;;;11.85;81.10;99075.75;5025598;28;20065;-52
2021/10/14 03:30:33;;;;;;;25.67;14.55;;;;;;;11.84;81.11;99076.69;5010949;28;20033;-52
2021/10/14 03:32:59;;;;;;;26.20;14.60;;;;;;;11.83;81.33;99065.41;5010216;28;20034;-51
2021/10/14 03:35:25;;;;;;;26.02;14.77;;;;;;;11.82;81.46;99068.97;5010317;28;20509;-54
2021/10/14 03:37:50;;;;;;;24.20;13.85;;;;;;;11.78;81.39;99053.53;5019939;28;20604;-50
2021/10/14 03:40:16;;;;;;;25.75;14.65;;;;;;;11.86;81.09;99061.84;5020021;28;20042;-53
2021/10/14 03:42:42;;;;;;;24.00;14.15;;;;;;;11.83;80.88;99059.34;5029230;28;20136;-52
2021/10/14 03:45:08;;;;;;;24.90;13.95;;;;;;;11.81;81.15;99058.63;5032749;28;20048;-52
2021/10/14 03:47:34;;;;;;;25.88;13.95;;;;;;;11.79;81.07;99055.22;5028472;28;20049;-49
2021/10/14 03:50:00;;;;;;;22.20;14.13;;;;;;;11.77;80.94;99044.91;5028230;28;20057;-52
2021/10/14 03:52:25;;;;;;;25.42;14.20;;;;;;;11.77;80.83;99042.31;5028568;28;20045;-50
2021/10/14 03:54:51;;;;;;;21.48;14.48;;;;;;;11.78;80.85;99048.31;5029889;28;20041;-51
2021/10/14 03:57:17;;;;;;;29.60;14.50;;;;;;;11.76;80.82;99045.81;5016616;28;20033;-51
2021/10/14 03:59:42;;;;;;;24.98;14.18;;;;;;;11.75;80.89;99049.34;5049621;28;20094;-51
2021/10/14 04:02:08;;;;;;;21.83;13.65;;;;;;;11.72;80.97;99046.84;5051390;28;20067;-52
2021/10/14 04:04:34;;;;;;;28.00;13.95;;;;;;;11.65;80.98;99031.59;5051044;28;20045;-54
2021/10/14 04:07:00;;;;;;;23.77;14.05;;;;;;;11.60;81.18;99018.81;5035632;28;20037;-50
2021/10/14 04:09:26;;;;;;;22.00;13.90;;;;;;;11.70;80.98;99038.28;5044362;28;20460;-52
2021/10/14 04:11:52;;;;;;;29.73;14.30;;;;;;;11.71;81.32;99028.69;5036608;28;20037;-53
2021/10/14 04:14:18;;;;;;;24.38;13.77;;;;;;;11.73;81.18;99032.09;5029634;28;20099;-55
2021/10/14 04:16:44;;;;;;;22.52;12.93;;;;;;;11.73;81.13;99024.28;5015641;28;20052;-51
2021/10/14 04:19:09;;;;;;;24.73;13.15;;;;;;;11.74;80.83;99025.97;5035433;28;20033;-50
2021/10/14 04:21:36;;;;;;;27.02;13.48;;;;;;;11.73;81.00;99021.66;5021899;28;20047;-55
2021/10/14 04:24:02;;;;;;;23.20;12.63;;;;;;;11.73;80.53;99024.28;5031507;28;20447;-51
2021/10/14 04:26:28;;;;;;;24.52;12.43;;;;;;;11.69;80.39;99007.09;5033434;28;20041;-53
2021/10/14 04:28:54;;;;;;;26.63;13.20;;;;;;;11.73;80.25;99003.44;5033217;28;20045;-52
2021/10/14 04:31:19;;;;;;;24.50;13.43;;;;;;;11.82;80.18;99003.00;5032218;28;20539;-50
2021/10/14 04:33:45;;;;;;;27.00;12.85;;;;;;;11.83;80.13;99002.06;5061851;28;20421;-54
2021/10/14 04:36:11;;;;;;;27.17;13.07;;;;;;;11.82;80.19;99003.84;5028522;28;20041;-52
2021/10/14 04:38:37;;;;;;;22.92;12.88;;;;;;;11.69;79.53;98983.66;5030730;28;20497;-49
2021/10/14 04:41:02;;;;;;;27.52;12.40;;;;;;;11.82;79.42;98990.00;5012861;28;20041;-51
2021/10/14 04:43:28;;;;;;;24.48;12.77;;;;;;;11.82;78.72;98996.03;5032771;28;20133;-51
2021/10/14 04:45:54;;;;;;;31.27;13.68;;;;;;;11.83;78.44;98987.28;5014699;28;20052;-48
2021/10/14 04:48:20;;;;;;;23.52;12.38;;;;;;;11.82;78.16;98984.78;5033752;28;20041;-51
2021/10/14 04:50:47;;;;;;;24.42;11.98;;;;;;;11.81;77.50;98973.50;5030386;28;20064;-49
2021/10/14 04:53:12;;;;;;;25.55;12.30;;;;;;;11.79;76.60;98961.47;5029215;28;20131;-53
2021/10/14 04:55:38;;;;;;;25.15;12.10;;;;;;;11.80;76.19;98964.00;5032468;28;20079;-53
2021/10/14 04:58:04;;;;;;;22.00;12.65;;;;;;;11.70;76.29;98943.69;5041380;28;20139;-50
2021/10/14 05:00:30;;;;;;;21.23;11.02;;;;;;;11.80;75.85;98960.56;5032462;28;20103;-49
2021/10/14 05:02:56;;;;;;;21.08;11.27;;;;;;;11.82;75.90;98961.34;5030223;28;20084;-50
2021/10/14 05:05:22;;;;;;;16.38;10.40;;;;;;;11.80;75.06;98951.00;5031212;28;20132;-54
2021/10/14 05:07:47;;;;;;;20.15;11.63;;;;;;;11.82;74.44;98959.56;5044805;28;20064;-49
2021/10/14 05:10:14;;;;;;;19.65;9.80;;;;;;;11.80;73.90;98956.19;5031859;28;20026;-50
2021/10/14 05:12:39;;;;;;;21.83;10.75;;;;;;;11.79;73.92;98949.31;5012567;28;20052;-48
2021/10/14 05:15:09;;;;;;;18.45;9.95;;;;;;;11.80;73.46;98953.59;5030552;28;20429;-51
2021/10/14 05:17:35;;;;;;;16.77;9.40;;;;;;;11.81;73.19;98951.84;5034827;28;20037;-50
2021/10/14 05:20:06;;;;;;;21.83;10.13;;;;;;;11.80;72.80;98955.34;5029947;28;20041;-50
2021/10/14 05:22:32;;;;;;;18.65;9.45;;;;;;;11.72;72.41;98953.09;5042461;28;20044;-50
2021/10/14 05:24:58;;;;;;;19.20;9.73;;;;;;;11.72;72.57;98941.88;5051851;28;20095;-50
2021/10/14 05:27:24;;;;;;;16.00;10.15;;;;;;;11.79;72.01;98961.47;5051881;28;20032;-52
2021/10/14 05:29:49;;;;;;;20.98;9.48;;;;;;;11.72;72.24;98953.09;5051684;28;20500;-53
2021/10/14 05:32:15;;;;;;;22.02;9.40;;;;;;;11.77;72.07;98952.91;5046599;28;20512;-50
2021/10/14 05:34:41;;;;;;;21.10;9.85;;;;;;;11.63;71.83;98935.34;5031249;28;20042;-52
2021/10/14 05:37:07;;;;;;;13.32;8.80;;;;;;;11.71;71.76;98959.25;5040402;28;20037;-52
2021/10/14 05:39:33;;;;;;;17.65;9.10;;;;;;;11.66;71.75;98968.22;5052041;28;20507;-54
2021/10/14 05:41:58;;;;;;;18.00;9.90;;;;;;;11.56;71.67;98948.75;5051480;28;20051;-51
2021/10/14 05:44:24;;;;;;;18.02;10.13;;;;;;;11.66;71.68;98948.22;5050235;28;20036;-51
2021/10/14 05:46:50;;;;;;;19.60;9.80;;;;;;;11.65;71.67;98948.28;5034740;28;20464;-49
2021/10/14 05:49:16;;;;;;;17.65;8.60;;;;;;;11.62;71.42;98948.47;5033901;28;20128;-50
2021/10/14 05:51:42;;;;;;;21.40;9.73;;;;;;;11.60;71.54;98935.50;5034734;28;20041;-52
2021/10/14 05:54:08;;;;;;;17.13;10.02;;;;;;;11.61;72.28;98925.94;5048246;28;20056;-56
2021/10/14 05:56:33;;;;;;;21.33;10.07;;;;;;;11.60;72.26;98926.84;5050003;28;20055;-51
2021/10/14 05:59:00;;;;;;;25.08;9.85;;;;;;;11.60;71.92;98922.50;5035263;28;20037;-53
2021/10/14 06:01:25;;;;;;;22.80;10.75;;;;;;;11.52;71.60;98915.97;5030577;28;20095;-50
2021/10/14 06:03:54;;;;;;;18.58;9.68;;;;;;;11.61;71.48;98928.53;5031148;28;20100;-52
2021/10/14 06:06:20;;;;;;;16.15;8.77;;;;;;;11.66;71.11;98939.56;5029515;28;20120;-50
2021/10/14 06:08:46;;;;;;;16.63;9.75;;;;;;;11.70;70.98;98943.69;5038170;28;20064;-52
2021/10/14 06:11:13;;;;;;;29.02;9.30;;;;;;;11.71;71.09;98937.56;5037832;28;20524;-52
2021/10/14 06:13:39;;;;;;;18.77;9.27;;;;;;;11.73;70.94;98938.34;5050963;28;20044;-52
2021/10/14 06:16:07;;;;;;;17.50;9.35;;;;;;;11.65;70.61;98915.28;5030850;28;20041;-50
2021/10/14 06:18:34;;;;;;;17.37;9.20;;;;;;;11.75;70.52;98936.53;5022742;28;20041;-51
2021/10/14 06:21:00;;;;;;;17.42;9.63;;;;;;;11.79;70.40;98945.84;5029507;28;20144;-55
2021/10/14 06:23:26;;;;;;;20.40;9.63;;;;;;;11.82;70.33;98946.56;5011204;28;20045;-54
2021/10/14 06:25:51;;;;;;;19.17;9.27;;;;;;;11.86;70.04;98947.22;5012250;28;20041;-50
2021/10/14 06:28:17;;;;;;;22.17;10.90;;;;;;;11.87;69.64;98943.72;5030764;28;20085;-52
2021/10/14 06:30:43;;;;;;;21.25;9.77;;;;;;;11.92;69.76;98944.31;5016250;28;20137;-52
2021/10/14 06:33:08;;;;;;;19.30;10.35;;;;;;;11.94;69.41;98924.22;5017888;28;20045;-54
2021/10/14 06:35:34;;;;;;;17.90;9.10;;;;;;;12.10;69.17;98930.31;5033275;28;20124;-51
2021/10/14 06:38:00;;;;;;;19.88;10.23;;;;;;;12.23;68.97;98935.75;5028117;28;20374;-52
2021/10/14 06:40:26;;;;;;;16.02;9.10;;;;;;;12.34;68.24;98933.41;5029479;28;20084;-51
2021/10/14 06:42:52;;;;;;;17.02;8.60;;;;;;;12.42;67.66;98926.00;5029662;28;20037;-49
2021/10/14 06:45:18;;;;;;;15.80;9.48;;;;;;;12.53;67.22;98930.63;5032062;28;20082;-49
2021/10/14 06:47:44;;;;;;;20.40;9.55;;;;;;;12.62;66.97;98935.34;5035541;28;20193;-50
2021/10/14 06:50:09;;;;;;;19.20;9.02;;;;;;;12.62;66.29;98919.69;5038158;28;20065;-49
2021/10/14 06:52:35;;;;;;;16.65;8.30;;;;;;;12.74;66.01;98930.31;5028658;28;20510;-51
2021/10/14 06:55:02;;;;;;;24.42;9.27;;;;;;;12.72;65.88;98919.13;5019871;28;20068;-51
2021/10/14 06:57:28;;;;;;;15.18;8.00;;;;;;;12.86;65.35;98922.75;5016368;28;20425;-48
2021/10/14 06:59:54;;;;;;;18.80;8.88;;;;;;;12.84;64.75;98922.81;5011463;28;20057;-51
2021/10/14 07:02:20;;;;;;;19.38;8.52;;;;;;;12.84;64.19;98924.56;5026292;28;20087;-53
2021/10/14 07:04:46;;;;;;;25.88;9.38;;;;;;;12.86;64.03;98922.75;5046009;28;20620;-53
2021/10/14 07:07:11;;;;;;;25.20;9.73;;;;;;;12.89;63.97;98926.00;5044954;28;20123;-51
2021/10/14 07:09:37;;;;;;;26.90;9.52;;;;;;;12.87;63.29;98917.44;5047265;28;20523;-48
2021/10/14 07:12:12;;;;;;;22.00;9.07;;;;;;;12.82;62.17;98927.28;5043729;28;20064;-51
2021/10/14 07:14:42;;;;;;;30.90;9.23;;;;;;;12.82;62.01;98929.91;5019971;28;20531;-50
2021/10/14 07:17:08;;;;;;;19.77;7.95;;;;;;;12.81;61.61;98927.38;5054793;28;20042;-53
2021/10/14 07:19:35;;;;;;;19.55;7.97;;;;;;;12.74;60.37;98926.84;5037448;28;20040;-49
2021/10/14 07:22:02;;;;;;;16.20;7.97;;;;;;;12.68;59.56;98930.66;5034659;28;20041;-51
2021/10/14 07:24:30;;;;;;;21.67;9.20;;;;;;;12.61;59.42;98928.47;5034331;28;20043;-50
2021/10/14 07:26:57;;;;;;;21.85;9.48;;;;;;;12.58;59.24;98933.84;5044578;28;20469;-50
2021/10/14 07:29:23;;;;;;;19.95;8.80;;;;;;;12.51;59.36;98916.88;5044518;28;20037;-47
2021/10/14 07:31:50;;;;;;;16.67;8.40;;;;;;;12.60;58.94;98932.84;5031966;28;20037;-51
2021/10/14 07:34:15;;;;;;;18.38;8.02;;;;;;;12.56;58.72;98927.88;5041546;28;20169;-47
2021/10/14 07:36:41;;;;;;;32.67;12.52;;;;;;;12.55;58.94;98929.66;5032026;28;20045;-50
2021/10/14 07:39:07;;;;;;;20.10;8.82;;;;;;;12.54;59.19;98929.72;5040757;28;20040;-49
2021/10/14 07:41:33;;;;;;;25.35;8.13;;;;;;;12.54;59.55;98930.56;5004858;28;20433;-63
2021/10/14 07:44:00;;;;;;;20.17;8.55;;;;;;;12.51;60.13;98915.06;5033185;28;20053;-63
2021/10/14 07:46:27;;;;;;;21.83;9.52;;;;;;;12.45;61.02;98912.81;5034152;28;20067;-64
2021/10/14 07:48:53;;;;;;;22.42;9.63;;;;;;;12.40;62.00;98921.81;5011532;28;20099;-64
2021/10/14 07:51:20;;;;;;;20.80;9.00;;;;;;;12.25;62.46;98908.66;5029078;28;20049;-64
2021/10/14 07:53:45;;;;;;;24.45;10.40;;;;;;;12.27;63.09;98932.88;5025452;28;20040;-65
2021/10/14 07:56:11;;;;;;;17.27;8.45;;;;;;;12.25;62.40;98939.09;5009464;28;20124;-64
2021/10/14 07:58:37;;;;;;;17.92;9.05;;;;;;;12.21;62.39;98940.19;5009471;28;20085;-62
2021/10/14 08:01:03;;;;;;;20.95;9.50;;;;;;;12.11;61.93;98937.22;5009848;28;20038;-64
2021/10/14 08:03:29;;;;;;;25.88;8.85;;;;;;;12.02;61.88;98935.09;5009836;28;20048;-63
2021/10/14 08:05:55;;;;;;;19.90;8.93;;;;;;;11.99;61.68;98937.00;5009595;28;20052;-64
2021/10/14 08:08:21;;;;;;;19.23;9.18;;;;;;;11.97;61.97;98934.50;5018546;28;20099;-62
2021/10/14 08:10:47;;;;;;;18.35;9.07;;;;;;;11.93;61.81;98943.41;5029289;28;20041;-62
2021/10/14 08:13:16;;;;;;;22.77;9.27;;;;;;;11.93;62.09;98934.75;5029547;28;20033;-64
2021/10/14 08:15:48;;;;;;;22.17;8.93;;;;;;;11.86;62.55;98929.00;5014192;28;20531;-63
2021/10/14 08:18:14;;;;;;;31.88;9.30;;;;;;;11.89;62.48;98926.22;5009822;28;20049;-63
2021/10/14 08:20:40;;;;;;;21.48;10.07;;;;;;;11.93;62.91;98930.38;5009607;28;20052;-66
2021/10/14 08:23:07;;;;;;;22.98;9.20;;;;;;;11.88;63.51;98927.13;5018256;28;20042;-65
2021/10/14 08:25:33;;;;;;;23.25;10.02;;;;;;;11.85;63.12;98924.72;5012302;28;20390;-64
2021/10/14 08:27:59;;;;;;;20.05;9.80;;;;;;;11.87;63.50;98917.66;5040781;28;20048;-64
2021/10/14 08:30:25;;;;;;;28.08;10.10;;;;;;;11.75;63.84;98887.03;5009138;28;20038;-63
2021/10/14 08:32:52;;;;;;;20.48;8.77;;;;;;;11.83;64.36;98900.50;5023935;28;20038;-63
2021/10/14 08:35:18;;;;;;;23.30;8.25;;;;;;;11.79;63.67;98878.97;5008046;28;20466;-64
2021/10/14 08:37:44;;;;;;;21.88;9.13;;;;;;;11.89;62.98;98895.81;5014274;28;20048;-63
2021/10/14 08:40:10;;;;;;;22.02;9.73;;;;;;;11.87;63.84;98895.06;5044059;28;20168;-64
2021/10/14 08:42:36;;;;;;;26.83;7.78;;;;;;;11.84;63.17;98899.56;5028797;28;20038;-65
2021/10/14 08:45:05;;;;;;;26.02;9.07;;;;;;;11.85;63.12;98894.28;5016691;28;20050;-65
2021/10/14 08:47:31;;;;;;;25.63;9.60;;;;;;;11.77;62.88;98880.00;5010025;28;20042;-64
2021/10/14 08:49:58;;;;;;;27.00;9.68;;;;;;;11.92;62.35;98896.59;5012583;28;20054;-64
2021/10/14 08:52:24;;;;;;;23.95;9.90;;;;;;;11.92;62.61;98899.19;5013524;28;20041;-64
2021/10/14 08:54:50;;;;;;;22.80;10.63;;;;;;;11.91;63.23;98895.75;5011360;28;20045;-64
2021/10/14 08:57:15;;;;;;;19.30;8.95;;;;;;;11.90;63.82;98896.66;5011393;28;20114;-64
2021/10/14 08:59:41;;;;;;;24.58;9.60;;;;;;;11.82;63.40;98881.44;5011430;28;20176;-65
2021/10/14 09:02:11;;;;;;;19.48;9.73;;;;;;;11.83;63.87;98885.72;5012414;28;20041;-64
2021/10/14 09:04:57;;;;;;;28.80;9.38;;;;;;;11.63;64.19;98864.19;5012211;28;20037;-61
2021/10/14 09:07:26;;;;;;;19.30;8.95;;;;;;;11.76;64.24;98888.72;5028499;28;20042;-63
2021/10/14 09:09:52;;;;;;;21.48;9.43;;;;;;;11.78;63.84;98886.88;5037407;28;20424;-64
2021/10/14 09:12:21;;;;;;;19.98;9.55;;;;;;;11.83;63.69;98875.28;5052179;28;20043;-64
2021/10/14 09:14:56;;;;;;;15.90;8.63;;;;;;;11.87;63.09;98865.56;5044016;28;20517;-62
2021/10/14 09:17:37;;;;;;;21.60;8.82;;;;;;;11.85;62.89;98876.06;5030622;28;20069;-64
2021/10/14 09:20:21;;;;;;;16.17;9.10;;;;;;;11.74;62.77;98880.16;5031911;28;20037;-64
2021/10/14 09:23:00;;;;;;;24.58;9.85;;;;;;;11.71;63.41;98883.72;5039680;28;20065;-64
2021/10/14 09:25:42;;;;;;;27.20;12.23;;;;;;;11.64;63.14;98864.13;5051649;28;20049;-65
2021/10/14 09:28:10;;;;;;;21.17;10.60;;;;;;;11.73;62.92;98874.09;5051611;28;20518;-65
2021/10/14 09:30:48;;;;;;;18.27;9.35;;;;;;;11.78;63.54;98873.84;5040759;28;20053;-63
2021/10/14 09:33:42;;;;;;;25.00;10.10;;;;;;;11.81;63.54;98865.91;5030554;28;20047;-63
2021/10/14 09:36:26;;;;;;;23.42;10.20;;;;;;;11.79;62.80;98860.75;5033459;28;20550;-63
2021/10/14 09:38:52;;;;;;;26.77;9.88;;;;;;;11.83;63.00;98871.84;5051311;28;20077;-66
2021/10/14 09:41:19;;;;;;;26.85;9.93;;;;;;;11.81;63.13;98869.34;5051665;28;20040;-64
2021/10/14 09:43:52;;;;;;;19.83;10.38;;;;;;;11.82;63.83;98878.00;5046799;28;20056;-64
2021/10/14 09:46:34;;;;;;;23.30;9.45;;;;;;;11.80;64.51;98865.06;5025923;28;20048;-63
2021/10/14 09:49:07;;;;;;;20.48;11.05;;;;;;;11.66;64.80;98858.84;5030886;28;20140;-65
2021/10/14 09:51:33;;;;;;;18.73;9.65;;;;;;;11.58;64.88;98845.38;5047505;28;20538;-64
2021/10/14 09:53:59;;;;;;;21.90;10.60;;;;;;;11.61;65.58;98860.84;5033622;28;20048;-63
2021/10/14 09:56:29;;;;;;;23.55;10.93;;;;;;;11.54;65.93;98852.50;5050035;28;20393;-64
2021/10/14 09:58:57;;;;;;;22.50;10.57;;;;;;;11.42;66.62;98848.75;5050953;28;20040;-64
2021/10/14 10:01:24;;;;;;;25.48;11.50;;;;;;;11.36;66.72;98854.28;5051357;28;20055;-63
2021/10/14 10:03:50;;;;;;;19.35;9.20;;;;;;;11.34;67.56;98855.28;5044476;28;20049;-62
2021/10/14 10:06:16;;;;;;;24.88;9.85;;;;;;;11.29;67.84;98844.28;5029763;28;20045;-65
2021/10/14 10:08:43;;;;;;;24.73;10.80;;;;;;;11.28;68.16;98840.81;5029778;28;20131;-64
2021/10/14 10:11:15;;;;;;;26.95;11.48;;;;;;;11.19;69.05;98841.31;5029718;28;20045;-65
2021/10/14 10:13:46;;;;;;;26.20;11.65;;;;;;;11.18;69.47;98844.81;5029645;28;20124;-67
2021/10/14 10:16:13;;;;;;;21.98;11.13;;;;;;;11.18;69.57;98842.22;5031096;28;20138;-65
2021/10/14 10:18:41;;;;;;;31.75;11.80;;;;;;;11.17;69.21;98842.28;5029518;28;20049;-66
2021/10/14 10:21:09;;;;;;;29.40;12.10;;;;;;;11.09;70.14;98834.88;5032004;28;20038;-65
2021/10/14 10:23:49;;;;;;;35.90;13.63;;;;;;;11.17;70.63;98835.31;5029310;28;20428;-66
2021/10/14 10:26:36;;;;;;;23.83;11.93;;;;;;;11.17;71.49;98840.53;5029530;28;20041;-65
2021/10/14 10:29:12;;;;;;;25.58;11.05;;;;;;;11.10;71.61;98836.53;5029454;28;20041;-66
2021/10/14 10:31:53;;;;;;;23.73;12.05;;;;;;;11.07;72.35;98841.06;5030672;28;20130;-66
2021/10/14 10:37:20;;;;;;;22.42;12.73;;;;;;;10.86;75.31;98845.56;5049949;28;20508;-65
2021/10/14 10:39:48;;;;;;;24.75;12.98;;;;;;;10.78;76.57;98848.50;5049041;28;20062;-64
2021/10/14 10:42:17;;;;;;;33.60;13.83;;;;;;;10.70;78.22;98844.63;5050275;28;20072;-64
2021/10/14 10:44:44;;;;;;;26.70;13.23;;;;;;;10.63;79.43;98849.25;5033531;28;20042;-64
2021/10/14 10:47:41;;;;;;;31.90;13.25;;;;;;;10.60;81.05;98852.88;5030802;28;20131;-65
2021/10/14 10:50:09;;;;;;;22.75;13.02;;;;;;;10.56;81.43;98848.72;5050151;28;20056;-65
2021/10/14 10:52:37;;;;;;;30.50;13.13;;;;;;;10.46;81.39;98844.03;5048773;28;20043;-63
2021/10/14 10:55:22;;;;;;;33.03;13.13;;;;;;;10.37;82.04;98847.91;5048689;28;20802;-63
2021/10/14 10:57:49;;;;;;;26.40;12.85;;;;;;;10.29;81.92;98851.78;5050000;28;20049;-64
2021/10/14 11:00:16;;;;;;;32.60;12.63;;;;;;;10.23;82.12;98839.91;5050018;28;20045;-65
2021/10/14 11:02:43;;;;;;;27.92;13.07;;;;;;;10.14;82.50;98835.97;5042653;28;20045;-65
2021/10/14 11:05:09;;;;;;;24.92;12.20;;;;;;;10.23;81.66;98846.84;5028765;28;20049;-65
2021/10/14 11:07:35;;;;;;;31.17;12.43;;;;;;;10.09;81.67;98844.88;5028583;28;20063;-64
2021/10/14 11:10:01;;;;;;;33.15;13.98;;;;;;;10.05;81.70;98832.91;4995467;28;20555;-64
2021/10/14 11:12:26;;;;;;;26.92;10.50;;;;;;;10.19;80.64;98844.41;5028685;28;20050;-64
2021/10/14 11:14:52;;;;;;;28.58;11.27;;;;;;;10.16;80.28;98838.50;5028879;28;20095;-64
2021/10/14 11:17:18;;;;;;;32.63;12.35;;;;;;;10.16;79.56;98841.94;5043837;28;20051;-66
2021/10/14 11:19:44;;;;;;;28.90;12.52;;;;;;;10.19;78.46;98834.03;5032398;28;20168;-66
2021/10/14 11:22:15;;;;;;;26.90;12.15;;;;;;;10.25;78.86;98825.09;5029277;28;20052;-65